createdAt,value
2022-08-26T00:01:56.035Z,48.23
2022-08-26T00:04:25.207Z,48.78
2022-08-26T00:06:56.753Z,48.31
2022-08-26T00:09:25.620Z,47.95
2022-08-26T00:11:54.244Z,48.20
2022-08-26T00:14:24.167Z,48.46
2022-08-26T00:16:55.376Z,48.84
2022-08-26T00:19:23.177Z,48.30
2022-08-26T00:21:50.749Z,47.67
2022-08-26T00:24:20.263Z,47.99
2022-08-26T00:26:47.488Z,48.11
2022-08-26T00:29:14.960Z,48.06
2022-08-26T00:31:42.466Z,47.44
2022-08-26T00:34:12.201Z,47.89
2022-08-26T00:36:40.758Z,47.57
2022-08-26T00:39:08.930Z,47.98
2022-08-26T00:41:39.691Z,47.51
2022-08-26T00:44:08.839Z,48.43
2022-08-26T00:46:46.668Z,48.66
2022-08-26T00:49:20.471Z,48.78
2022-08-26T00:51:55.990Z,48.99
2022-08-26T00:54:27.651Z,49.30
2022-08-26T00:57:05.138Z,49.27
2022-08-26T00:59:36.368Z,49.53
2022-08-26T01:02:06.647Z,50.70
2022-08-26T01:04:49.830Z,50.38
2022-08-26T01:07:22.434Z,51.13
2022-08-26T01:09:50.226Z,51.21
2022-08-26T01:12:22.001Z,51.14
2022-08-26T01:14:50.065Z,49.92
2022-08-26T01:17:17.550Z,50.09
2022-08-26T01:19:53.298Z,50.13
2022-08-26T01:22:30.850Z,50.08
2022-08-26T01:25:03.573Z,50.56
2022-08-26T01:27:32.572Z,49.97
2022-08-26T01:30:00.419Z,50.23
2022-08-26T01:32:28.463Z,50.04
2022-08-26T01:34:55.353Z,50.27
2022-08-26T01:37:27.521Z,49.78
2022-08-26T01:39:56.678Z,49.81
2022-08-26T01:42:27.301Z,50.60
2022-08-26T01:45:08.686Z,50.74
2022-08-26T01:47:36.970Z,51.01
2022-08-26T01:50:11.154Z,50.97
2022-08-26T01:52:45.662Z,50.54
2022-08-26T01:55:27.629Z,51.09
2022-08-26T01:58:05.775Z,50.80
2022-08-26T02:00:34.679Z,51.26
2022-08-26T02:03:17.238Z,51.82
2022-08-26T02:06:01.236Z,51.19
2022-08-26T02:08:33.514Z,51.31
2022-08-26T02:11:00.624Z,50.99
2022-08-26T02:13:30.503Z,51.20
2022-08-26T02:16:00.790Z,51.33
2022-08-26T02:18:31.027Z,51.76
2022-08-26T02:20:57.924Z,51.64
2022-08-26T02:23:26.188Z,51.59
2022-08-26T02:26:21.625Z,51.68
2022-08-26T02:29:07.876Z,51.58
2022-08-26T02:31:34.887Z,51.72
2022-08-26T02:34:26.128Z,51.82
2022-08-26T02:36:58.167Z,51.70
2022-08-26T02:39:25.367Z,51.31
2022-08-26T02:41:52.709Z,51.16
2022-08-26T02:44:19.813Z,51.50
2022-08-26T02:46:47.442Z,50.85
2022-08-26T02:49:16.304Z,51.19
2022-08-26T02:51:44.131Z,51.20
2022-08-26T02:54:11.048Z,51.41
2022-08-26T02:56:38.314Z,51.90
2022-08-26T02:59:05.540Z,51.74
2022-08-26T03:01:36.105Z,51.75
2022-08-26T03:04:05.921Z,52.07
2022-08-26T03:06:33.112Z,51.95
2022-08-26T03:09:00.007Z,52.12
2022-08-26T03:11:30.952Z,52.61
2022-08-26T03:14:00.583Z,52.88
2022-08-26T03:16:37.806Z,53.26
2022-08-26T03:19:08.021Z,53.24
2022-08-26T03:21:36.863Z,53.25
2022-08-26T03:24:05.441Z,53.24
2022-08-26T03:26:32.374Z,52.98
2022-08-26T03:29:17.498Z,53.17
2022-08-26T03:31:47.067Z,53.07
2022-08-26T03:34:14.547Z,52.70
2022-08-26T03:36:42.059Z,52.83
2022-08-26T03:39:12.495Z,53.00
2022-08-26T03:41:40.457Z,52.87
2022-08-26T03:44:11.539Z,52.72
2022-08-26T03:46:39.617Z,53.41
2022-08-26T03:49:07.517Z,53.37
2022-08-26T03:51:38.936Z,53.24
2022-08-26T03:54:08.342Z,53.37
2022-08-26T03:56:36.631Z,53.72
2022-08-26T03:59:05.248Z,53.23
2022-08-26T04:01:35.990Z,53.58
2022-08-26T04:04:03.847Z,53.84
2022-08-26T04:06:38.219Z,53.90
2022-08-26T04:09:09.916Z,53.75
2022-08-26T04:11:39.514Z,54.09
2022-08-26T04:14:17.669Z,54.03
2022-08-26T04:16:48.249Z,54.39
2022-08-26T04:19:19.453Z,54.39
2022-08-26T04:21:52.562Z,54.11
2022-08-26T04:24:23.166Z,54.47
2022-08-26T04:26:50.406Z,54.08
2022-08-26T04:29:24.000Z,54.38
2022-08-26T04:31:56.045Z,53.89
2022-08-26T04:34:28.999Z,53.96
2022-08-26T04:36:59.929Z,54.07
2022-08-26T04:39:32.012Z,53.72
2022-08-26T04:42:00.601Z,53.89
2022-08-26T04:44:47.656Z,53.64
2022-08-26T04:47:14.517Z,53.54
2022-08-26T04:49:41.468Z,53.98
2022-08-26T04:52:08.387Z,53.45
2022-08-26T04:54:35.227Z,53.02
2022-08-26T04:57:02.401Z,53.41
2022-08-26T04:59:29.313Z,53.28
2022-08-26T05:01:59.318Z,52.99
2022-08-26T05:04:26.397Z,52.81
2022-08-26T05:06:56.754Z,53.09
2022-08-26T05:09:26.664Z,53.40
2022-08-26T05:11:53.987Z,53.34
2022-08-26T05:14:23.084Z,53.58
2022-08-26T05:16:50.547Z,53.58
2022-08-26T05:19:18.956Z,53.27
2022-08-26T05:21:48.492Z,52.95
2022-08-26T05:24:16.496Z,53.38
2022-08-26T05:26:44.640Z,53.30
2022-08-26T05:29:12.257Z,53.01
2022-08-26T05:31:39.172Z,53.07
2022-08-26T05:34:06.174Z,53.22
2022-08-26T05:36:37.026Z,52.84
2022-08-26T05:39:06.215Z,53.06
2022-08-26T05:41:38.407Z,52.88
2022-08-26T05:44:10.422Z,52.92
2022-08-26T05:46:39.656Z,52.24
2022-08-26T05:49:12.849Z,51.28
2022-08-26T05:51:41.603Z,49.90
2022-08-26T05:54:10.452Z,48.02
2022-08-26T05:56:39.237Z,46.01
2022-08-26T05:59:14.201Z,44.61
2022-08-26T06:01:43.383Z,43.18
2022-08-26T06:04:11.455Z,40.94
2022-08-26T06:06:41.331Z,38.76
2022-08-26T06:09:11.092Z,36.90
2022-08-26T06:11:39.675Z,35.55
2022-08-26T06:14:08.110Z,35.18
2022-08-26T06:16:40.992Z,34.25
2022-08-26T06:19:11.606Z,33.99
2022-08-26T06:21:41.990Z,32.82
2022-08-26T06:24:31.550Z,32.24
2022-08-26T06:27:02.534Z,32.53
2022-08-26T06:29:34.463Z,31.12
2022-08-26T06:32:04.707Z,29.98
2022-08-26T06:34:32.652Z,29.21
2022-08-26T06:37:02.690Z,28.90
2022-08-26T06:39:31.563Z,27.98
2022-08-26T06:42:00.244Z,26.43
2022-08-26T06:44:36.660Z,27.40
2022-08-26T06:47:03.664Z,27.67
2022-08-26T06:49:30.573Z,26.51
2022-08-26T06:51:58.384Z,24.49
2022-08-26T06:54:26.953Z,23.46
2022-08-26T06:56:55.866Z,22.79
2022-08-26T06:59:23.198Z,22.94
2022-08-26T07:01:50.226Z,22.87
2022-08-26T07:04:22.038Z,24.58
2022-08-26T07:06:53.009Z,27.86
2022-08-26T07:09:22.692Z,30.67
2022-08-26T07:11:51.336Z,32.25
2022-08-26T07:14:19.420Z,34.33
2022-08-26T07:16:50.143Z,35.00
2022-08-26T07:19:27.559Z,36.50
2022-08-26T07:22:07.560Z,36.52
2022-08-26T07:24:42.582Z,37.03
2022-08-26T07:27:21.600Z,37.68
2022-08-26T07:29:49.024Z,36.73
2022-08-26T07:32:20.146Z,34.29
2022-08-26T07:34:52.474Z,33.09
2022-08-26T07:37:25.941Z,30.55
2022-08-26T07:39:55.778Z,30.91
2022-08-26T07:42:23.493Z,30.44
2022-08-26T07:44:50.991Z,28.87
2022-08-26T07:47:25.753Z,27.08
2022-08-26T07:49:56.236Z,25.32
2022-08-26T07:52:26.898Z,24.36
2022-08-26T07:54:56.175Z,24.46
2022-08-26T07:57:24.415Z,23.66
2022-08-26T07:59:55.115Z,24.10
2022-08-26T08:02:28.032Z,23.32
2022-08-26T08:04:56.858Z,22.66
2022-08-26T08:07:38.570Z,21.56
2022-08-26T08:10:17.337Z,21.35
2022-08-26T08:12:44.631Z,21.51
2022-08-26T08:15:13.781Z,21.82
2022-08-26T08:17:45.193Z,21.49
2022-08-26T08:20:14.226Z,21.44
2022-08-26T08:22:42.018Z,21.06
2022-08-26T08:25:11.586Z,19.17
2022-08-26T08:27:40.601Z,18.57
2022-08-26T08:30:09.163Z,17.31
2022-08-26T08:32:40.339Z,16.72
2022-08-26T08:35:10.804Z,16.78
2022-08-26T08:37:38.689Z,17.30
2022-08-26T08:40:07.907Z,16.92
2022-08-26T08:42:56.567Z,17.30
2022-08-26T08:45:49.638Z,19.91
2022-08-26T08:48:27.780Z,22.73
2022-08-26T08:51:23.337Z,23.77
2022-08-26T08:53:55.036Z,26.27
2022-08-26T08:56:39.523Z,27.58
2022-08-26T08:59:31.950Z,28.52
2022-08-26T09:02:11.430Z,30.06
2022-08-26T09:05:21.898Z,32.14
2022-08-26T09:08:12.793Z,32.40
2022-08-26T09:10:59.545Z,33.73
2022-08-26T09:13:29.063Z,33.17
2022-08-26T09:16:07.450Z,33.33
2022-08-26T09:18:46.163Z,33.18
2022-08-26T09:21:16.717Z,32.21
2022-08-26T09:23:49.292Z,32.09
2022-08-26T09:26:40.834Z,29.86
2022-08-26T09:29:29.549Z,26.16
2022-08-26T09:32:24.090Z,19.55
2022-08-26T09:35:10.836Z,15.69
2022-08-26T09:40:36.161Z,14.47
2022-08-26T09:43:22.623Z,16.83
2022-08-26T09:46:10.040Z,17.40
2022-08-26T09:48:41.001Z,15.72
2022-08-26T09:51:32.662Z,14.53
2022-08-26T09:54:02.656Z,13.44
2022-08-26T09:56:35.664Z,12.64
2022-08-26T09:59:03.548Z,13.69
2022-08-26T10:01:43.695Z,12.81
2022-08-26T10:04:24.707Z,12.94
2022-08-26T10:07:08.157Z,12.13
2022-08-26T10:09:40.504Z,12.53
2022-08-26T10:12:13.816Z,12.56
2022-08-26T10:14:49.969Z,12.23
2022-08-26T10:17:26.619Z,12.43
2022-08-26T10:20:09.816Z,13.26
2022-08-26T10:23:14.046Z,13.02
2022-08-26T10:25:59.161Z,14.11
2022-08-26T10:29:06.205Z,15.98
2022-08-26T10:32:03.746Z,18.13
2022-08-26T10:34:33.018Z,20.79
2022-08-26T10:37:16.771Z,22.31
2022-08-26T10:40:05.555Z,24.07
2022-08-26T10:42:37.614Z,25.35
2022-08-26T10:45:28.582Z,26.01
2022-08-26T10:48:12.364Z,27.79
2022-08-26T10:50:44.110Z,28.05
2022-08-26T10:53:36.291Z,27.69
2022-08-26T10:56:47.005Z,29.22
2022-08-26T10:59:29.525Z,29.22
2022-08-26T11:02:37.137Z,29.24
2022-08-26T11:05:16.038Z,28.68
2022-08-26T11:07:46.042Z,29.52
2022-08-26T11:10:22.470Z,29.53
2022-08-26T11:12:54.883Z,29.57
2022-08-26T11:15:24.526Z,30.21
2022-08-26T11:17:51.774Z,31.07
2022-08-26T11:20:39.117Z,32.15
2022-08-26T11:23:23.794Z,33.63
2022-08-26T11:25:57.155Z,34.34
2022-08-26T11:28:34.590Z,34.06
2022-08-26T11:31:02.519Z,34.88
2022-08-26T11:33:57.283Z,36.57
2022-08-26T11:36:45.390Z,36.20
2022-08-26T11:39:29.717Z,36.65
2022-08-26T11:42:01.939Z,36.78
2022-08-26T11:44:41.606Z,37.03
2022-08-26T11:47:26.738Z,37.25
2022-08-26T11:50:34.149Z,37.39
2022-08-26T11:53:06.054Z,37.73
2022-08-26T11:55:36.627Z,37.58
2022-08-26T11:58:07.323Z,37.30
2022-08-26T12:00:50.607Z,37.19
2022-08-26T12:03:44.351Z,37.31
2022-08-26T12:06:45.263Z,36.64
2022-08-26T12:09:34.422Z,36.41
2022-08-26T12:12:16.000Z,36.02
2022-08-26T12:14:44.241Z,35.65
2022-08-26T12:17:26.280Z,35.27
2022-08-26T12:19:53.190Z,36.57
2022-08-26T12:22:34.552Z,37.12
2022-08-26T12:25:08.602Z,35.34
2022-08-26T12:27:41.537Z,36.43
2022-08-26T12:30:24.305Z,37.48
2022-08-26T12:33:21.960Z,37.09
2022-08-26T12:35:56.355Z,36.60
2022-08-26T12:38:25.531Z,36.49
2022-08-26T12:40:52.960Z,36.16
2022-08-26T12:43:45.765Z,36.95
2022-08-26T12:46:28.152Z,37.15
2022-08-26T12:49:01.126Z,37.75
2022-08-26T12:51:32.234Z,37.78
2022-08-26T12:53:59.994Z,37.40
2022-08-26T12:56:38.987Z,37.44
2022-08-26T12:59:18.027Z,37.31
2022-08-26T13:01:46.692Z,36.94
2022-08-26T13:04:46.226Z,37.34
2022-08-26T13:07:31.221Z,38.48
2022-08-26T13:09:59.821Z,38.55
2022-08-26T13:12:41.021Z,37.91
2022-08-26T13:15:08.475Z,38.09
2022-08-26T13:17:36.002Z,37.89
2022-08-26T13:20:04.425Z,37.40
2022-08-26T13:22:32.103Z,37.70
2022-08-26T13:24:59.158Z,37.28
2022-08-26T13:27:27.922Z,36.33
2022-08-26T13:29:57.573Z,36.32
2022-08-26T13:32:27.564Z,37.29
2022-08-26T13:34:56.661Z,36.86
2022-08-26T13:37:24.347Z,36.38
2022-08-26T13:40:02.261Z,35.22
2022-08-26T13:42:29.698Z,35.06
2022-08-26T13:44:58.077Z,34.95
2022-08-26T13:47:25.898Z,34.91
2022-08-26T13:49:55.108Z,34.35
2022-08-26T13:52:30.217Z,34.10
2022-08-26T13:55:00.181Z,33.58
2022-08-26T13:57:29.855Z,33.56
2022-08-26T13:59:58.921Z,33.53
2022-08-26T14:02:27.711Z,33.20
2022-08-26T14:04:55.279Z,32.72
2022-08-26T14:07:22.661Z,33.25
2022-08-26T14:09:49.690Z,32.64
2022-08-26T14:12:16.760Z,33.87
2022-08-26T14:14:43.706Z,33.16
2022-08-26T14:17:13.612Z,33.81
2022-08-26T14:19:45.589Z,34.05
2022-08-26T14:22:15.959Z,34.15
2022-08-26T14:24:43.786Z,33.80
2022-08-26T14:27:12.414Z,33.75
2022-08-26T14:29:39.823Z,34.04
2022-08-26T14:32:23.223Z,33.86
2022-08-26T14:34:50.866Z,35.20
2022-08-26T14:37:18.600Z,34.89
2022-08-26T14:39:46.285Z,35.16
2022-08-26T14:42:15.255Z,34.56
2022-08-26T14:44:46.506Z,35.32
2022-08-26T14:47:13.443Z,35.22
2022-08-26T14:49:40.344Z,35.98
2022-08-26T14:52:07.213Z,37.18
2022-08-26T14:54:34.138Z,37.99
2022-08-26T14:57:10.156Z,37.53
2022-08-26T14:59:41.305Z,37.45
2022-08-26T15:02:13.596Z,37.68
2022-08-26T15:04:41.557Z,37.28
2022-08-26T15:07:12.839Z,37.70
2022-08-26T15:09:39.905Z,36.91
2022-08-26T15:12:07.038Z,36.63
2022-08-26T15:14:34.258Z,36.90
2022-08-26T15:17:01.332Z,36.86
2022-08-26T15:19:28.734Z,37.03
2022-08-26T15:21:55.581Z,37.46
2022-08-26T15:24:25.346Z,36.81
2022-08-26T15:26:52.991Z,37.05
2022-08-26T15:29:20.027Z,37.22
2022-08-26T15:31:48.625Z,37.74
2022-08-26T15:34:17.191Z,37.81
2022-08-26T15:36:47.311Z,38.99
2022-08-26T15:39:16.144Z,40.22
2022-08-26T15:41:43.462Z,41.53
2022-08-26T15:44:11.468Z,42.19
2022-08-26T15:46:38.574Z,42.16
2022-08-26T15:49:06.929Z,41.40
2022-08-26T15:51:45.237Z,41.82
2022-08-26T15:54:14.465Z,43.18
2022-08-26T15:56:41.409Z,43.53
2022-08-26T15:59:11.474Z,45.54
2022-08-26T16:01:39.082Z,45.01
2022-08-26T16:04:06.734Z,44.92
2022-08-26T16:06:38.624Z,44.97
2022-08-26T16:09:06.989Z,44.36
2022-08-26T16:11:35.831Z,45.05
2022-08-26T16:14:04.514Z,45.32
2022-08-26T16:16:32.160Z,45.48
2022-08-26T16:19:00.565Z,45.39
2022-08-26T16:21:30.706Z,45.79
2022-08-26T16:23:58.825Z,46.53
2022-08-26T16:26:29.821Z,46.07
2022-08-26T16:28:56.687Z,46.55
2022-08-26T16:31:23.855Z,46.89
2022-08-26T16:33:51.303Z,47.04
2022-08-26T16:36:18.200Z,47.58
2022-08-26T16:38:55.212Z,48.24
2022-08-26T16:41:28.243Z,49.35
2022-08-26T16:43:55.750Z,48.54
2022-08-26T16:46:25.665Z,49.64
2022-08-26T16:48:55.918Z,50.48
2022-08-26T16:51:26.795Z,50.59
2022-08-26T16:53:57.119Z,50.79
2022-08-26T16:56:30.613Z,51.52
2022-08-26T16:59:02.511Z,51.50
2022-08-26T17:01:29.897Z,52.13
2022-08-26T17:03:57.068Z,52.23
2022-08-26T17:06:23.947Z,53.02
2022-08-26T17:08:50.835Z,52.66
2022-08-26T17:11:17.729Z,52.89
2022-08-26T17:13:44.595Z,51.95
2022-08-26T17:16:13.020Z,51.56
2022-08-26T17:18:39.961Z,51.34
2022-08-26T17:21:10.502Z,51.68
2022-08-26T17:23:38.548Z,51.72
2022-08-26T17:26:05.689Z,52.29
2022-08-26T17:28:32.962Z,53.60
2022-08-26T17:31:01.059Z,52.43
2022-08-26T17:33:29.321Z,52.49
2022-08-26T17:35:56.955Z,52.08
2022-08-26T17:38:24.951Z,52.77
2022-08-26T17:40:52.829Z,52.34
2022-08-26T17:43:19.729Z,52.39
2022-08-26T17:45:46.999Z,52.79
2022-08-26T17:48:14.070Z,53.00
2022-08-26T17:50:42.621Z,52.88
2022-08-26T17:53:17.804Z,53.31
2022-08-26T17:55:47.184Z,53.15
2022-08-26T17:58:15.621Z,52.98
2022-08-26T18:00:51.822Z,53.41
2022-08-26T18:03:19.481Z,53.13
2022-08-26T18:05:53.063Z,53.92
2022-08-26T18:08:21.002Z,53.85
2022-08-26T18:10:48.519Z,53.37
2022-08-26T18:13:18.315Z,53.66
2022-08-26T18:15:47.245Z,54.05
2022-08-26T18:18:15.362Z,54.00
2022-08-26T18:20:44.522Z,53.91
2022-08-26T18:23:13.174Z,54.06
2022-08-26T18:25:43.361Z,54.58
2022-08-26T18:28:10.587Z,54.66
2022-08-26T18:30:37.896Z,54.40
2022-08-26T18:33:06.693Z,54.88
2022-08-26T18:35:42.357Z,54.67
2022-08-26T18:38:11.240Z,54.76
2022-08-26T18:40:44.134Z,55.01
2022-08-26T18:43:11.743Z,55.45
2022-08-26T18:45:38.823Z,55.36
2022-08-26T18:48:06.052Z,55.68
2022-08-26T18:50:33.031Z,55.51
2022-08-26T18:53:01.863Z,55.79
2022-08-26T18:55:28.786Z,55.51
2022-08-26T18:57:55.696Z,56.12
2022-08-26T19:00:22.739Z,55.76
2022-08-26T19:02:52.008Z,57.09
2022-08-26T19:05:22.112Z,57.87
2022-08-26T19:07:49.076Z,58.17
2022-08-26T19:10:16.151Z,58.68
2022-08-26T19:12:43.466Z,57.20
2022-08-26T19:15:11.631Z,56.62
2022-08-26T19:17:38.632Z,56.42
2022-08-26T19:20:06.350Z,57.24
2022-08-26T19:22:33.625Z,57.20
2022-08-26T19:25:01.250Z,56.78
2022-08-26T19:27:28.235Z,56.91
2022-08-26T19:29:56.339Z,56.88
2022-08-26T19:32:24.246Z,57.02
2022-08-26T19:34:52.645Z,57.11
2022-08-26T19:37:20.339Z,57.78
2022-08-26T19:39:47.622Z,57.37
2022-08-26T19:42:14.576Z,57.45
2022-08-26T19:45:00.254Z,57.63
2022-08-26T19:47:27.277Z,57.32
2022-08-26T19:49:55.628Z,57.55
2022-08-26T19:52:24.193Z,57.44
2022-08-26T19:54:58.169Z,57.99
2022-08-26T19:57:25.179Z,57.73
2022-08-26T19:59:52.174Z,57.98
2022-08-26T20:02:19.263Z,58.03
2022-08-26T20:04:46.509Z,57.25
2022-08-26T20:07:18.561Z,57.32
2022-08-26T20:09:47.293Z,57.10
2022-08-26T20:12:15.044Z,57.71
2022-08-26T20:14:42.759Z,57.40
2022-08-26T20:17:09.837Z,57.84
2022-08-26T20:19:55.639Z,57.73
2022-08-26T20:22:23.677Z,57.66
2022-08-26T20:24:51.571Z,57.43
2022-08-26T20:27:18.623Z,57.58
2022-08-26T20:29:45.519Z,57.02
2022-08-26T20:32:12.546Z,57.45
2022-08-26T20:34:39.932Z,57.45
2022-08-26T20:37:08.364Z,58.05
2022-08-26T20:39:35.366Z,58.34
2022-08-26T20:42:02.650Z,58.33
2022-08-26T20:44:29.477Z,58.25
2022-08-26T20:46:56.636Z,58.64
2022-08-26T20:49:23.558Z,58.11
2022-08-26T20:51:51.402Z,58.31
2022-08-26T20:54:22.982Z,58.16
2022-08-26T20:56:52.795Z,57.58
2022-08-26T20:59:21.133Z,57.60
2022-08-26T21:01:49.255Z,58.25
2022-08-26T21:04:21.968Z,58.07
2022-08-26T21:06:52.314Z,58.82
2022-08-26T21:09:22.556Z,59.67
2022-08-26T21:11:49.789Z,60.30
2022-08-26T21:14:17.847Z,58.71
2022-08-26T21:16:45.979Z,57.88
2022-08-26T21:19:17.947Z,57.98
2022-08-26T21:21:47.336Z,58.40
2022-08-26T21:24:14.841Z,58.12
2022-08-26T21:26:42.072Z,59.02
2022-08-26T21:29:09.817Z,58.77
2022-08-26T21:31:41.033Z,58.62
2022-08-26T21:34:12.011Z,58.96
2022-08-26T21:36:38.992Z,59.42
2022-08-26T21:39:10.755Z,59.38
2022-08-26T21:41:39.273Z,59.22
2022-08-26T21:44:06.176Z,59.47
2022-08-26T21:46:34.425Z,59.48
2022-08-26T21:49:04.128Z,60.11
2022-08-26T21:51:36.139Z,60.51
2022-08-26T21:54:08.728Z,60.31
2022-08-26T21:56:46.521Z,61.04
2022-08-26T21:59:18.592Z,60.84
2022-08-26T22:01:46.036Z,60.42
2022-08-26T22:04:12.933Z,60.65
2022-08-26T22:06:49.444Z,60.82
2022-08-26T22:09:21.969Z,61.42
2022-08-26T22:11:49.583Z,61.81
2022-08-26T22:14:17.959Z,61.52
2022-08-26T22:16:50.214Z,61.76
2022-08-26T22:19:19.964Z,61.18
2022-08-26T22:21:50.041Z,61.52
2022-08-26T22:24:23.816Z,61.20
2022-08-26T22:26:51.803Z,61.43
2022-08-26T22:29:19.845Z,61.57
2022-08-26T22:31:47.049Z,62.01
2022-08-26T22:34:17.234Z,61.75
2022-08-26T22:36:48.081Z,61.82
2022-08-26T22:39:19.781Z,62.23
2022-08-26T22:41:48.478Z,62.53
2022-08-26T22:44:16.779Z,61.68
2022-08-26T22:46:45.056Z,61.25
2022-08-26T22:49:16.256Z,61.66
2022-08-26T22:51:44.749Z,61.61
2022-08-26T22:54:11.880Z,61.99
2022-08-26T22:56:39.210Z,62.76
2022-08-26T22:59:08.122Z,62.92
2022-08-26T23:01:42.301Z,63.40
2022-08-26T23:04:10.896Z,63.60
2022-08-26T23:06:41.603Z,64.02
2022-08-26T23:09:09.384Z,64.71
2022-08-26T23:11:39.689Z,65.40
2022-08-26T23:14:09.210Z,65.41
2022-08-26T23:16:40.679Z,65.51
2022-08-26T23:19:11.398Z,66.09
2022-08-26T23:21:39.805Z,65.59
2022-08-26T23:24:08.166Z,66.05
2022-08-26T23:26:36.855Z,66.96
2022-08-26T23:29:06.336Z,66.50
2022-08-26T23:31:33.865Z,67.05
2022-08-26T23:34:19.359Z,66.96
2022-08-26T23:36:46.331Z,67.78
2022-08-26T23:39:14.624Z,67.55
2022-08-26T23:41:42.262Z,67.85
2022-08-26T23:44:09.140Z,67.58
2022-08-26T23:46:36.238Z,68.05
2022-08-26T23:49:04.705Z,68.36
2022-08-26T23:51:50.371Z,67.87
2022-08-26T23:54:17.224Z,68.39
2022-08-26T23:56:44.231Z,68.75
2022-08-26T23:59:11.238Z,68.79
